sensor_id;sensor_type;location;lat;lon;timestamp;P1;durP1;ratioP1;P2;durP2;ratioP2
8594;SDS011;4335;48.860;9.198;2022-12-22T00:02:16;2.80;;;1.70;;
8594;SDS011;4335;48.860;9.198;2022-12-22T00:05:12;2.67;;;2.07;;
8594;SDS011;4335;48.860;9.198;2022-12-22T00:07:59;3.00;;;2.30;;
8594;SDS011;4335;48.860;9.198;2022-12-22T00:10:44;2.63;;;2.10;;
8594;SDS011;4335;48.860;9.198;2022-12-22T00:13:28;2.63;;;1.73;;
8594;SDS011;4335;48.860;9.198;2022-12-22T00:16:14;2.00;;;1.50;;
8594;SDS011;4335;48.860;9.198;2022-12-22T00:19:01;2.67;;;1.80;;
8594;SDS011;4335;48.860;9.198;2022-12-22T00:21:47;1.83;;;1.73;;
8594;SDS011;4335;48.860;9.198;2022-12-22T00:24:33;2.33;;;1.50;;
8594;SDS011;4335;48.860;9.198;2022-12-22T00:27:27;2.63;;;1.83;;
8594;SDS011;4335;48.860;9.198;2022-12-22T00:30:14;2.33;;;1.70;;
8594;SDS011;4335;48.860;9.198;2022-12-22T00:32:59;1.97;;;1.77;;
8594;SDS011;4335;48.860;9.198;2022-12-22T00:35:45;2.53;;;1.60;;
8594;SDS011;4335;48.860;9.198;2022-12-22T00:38:30;4.50;;;1.60;;
8594;SDS011;4335;48.860;9.198;2022-12-22T00:41:16;2.27;;;2.00;;
8594;SDS011;4335;48.860;9.198;2022-12-22T00:44:04;2.77;;;1.73;;
8594;SDS011;4335;48.860;9.198;2022-12-22T00:46:48;2.13;;;1.93;;
8594;SDS011;4335;48.860;9.198;2022-12-22T00:49:33;2.80;;;2.33;;
8594;SDS011;4335;48.860;9.198;2022-12-22T00:52:22;2.30;;;2.10;;
8594;SDS011;4335;48.860;9.198;2022-12-22T00:55:11;2.87;;;2.57;;
8594;SDS011;4335;48.860;9.198;2022-12-22T00:57:58;2.70;;;2.47;;
8594;SDS011;4335;48.860;9.198;2022-12-22T01:00:45;2.93;;;2.40;;
8594;SDS011;4335;48.860;9.198;2022-12-22T01:03:29;2.97;;;2.33;;
8594;SDS011;4335;48.860;9.198;2022-12-22T01:06:17;4.03;;;2.53;;
8594;SDS011;4335;48.860;9.198;2022-12-22T01:09:05;2.43;;;1.80;;
8594;SDS011;4335;48.860;9.198;2022-12-22T01:11:52;2.60;;;1.73;;
8594;SDS011;4335;48.860;9.198;2022-12-22T01:14:44;2.57;;;2.00;;
8594;SDS011;4335;48.860;9.198;2022-12-22T01:17:29;2.63;;;1.63;;
8594;SDS011;4335;48.860;9.198;2022-12-22T01:20:17;1.73;;;1.53;;
8594;SDS011;4335;48.860;9.198;2022-12-22T01:23:01;2.13;;;1.63;;
8594;SDS011;4335;48.860;9.198;2022-12-22T01:25:50;2.60;;;1.20;;
8594;SDS011;4335;48.860;9.198;2022-12-22T01:28:35;1.60;;;1.40;;
8594;SDS011;4335;48.860;9.198;2022-12-22T01:31:23;3.07;;;1.53;;
8594;SDS011;4335;48.860;9.198;2022-12-22T01:34:10;2.63;;;1.40;;
8594;SDS011;4335;48.860;9.198;2022-12-22T01:36:58;1.40;;;1.30;;
8594;SDS011;4335;48.860;9.198;2022-12-22T01:39:42;5.43;;;1.73;;
8594;SDS011;4335;48.860;9.198;2022-12-22T01:42:32;1.77;;;1.60;;
8594;SDS011;4335;48.860;9.198;2022-12-22T01:45:24;1.70;;;1.50;;
8594;SDS011;4335;48.860;9.198;2022-12-22T01:48:13;2.67;;;1.30;;
8594;SDS011;4335;48.860;9.198;2022-12-22T01:51:05;2.13;;;1.50;;
8594;SDS011;4335;48.860;9.198;2022-12-22T01:53:52;1.90;;;1.67;;
8594;SDS011;4335;48.860;9.198;2022-12-22T01:56:42;2.33;;;1.53;;
8594;SDS011;4335;48.860;9.198;2022-12-22T01:59:28;1.87;;;1.67;;
8594;SDS011;4335;48.860;9.198;2022-12-22T02:02:12;2.20;;;1.93;;
8594;SDS011;4335;48.860;9.198;2022-12-22T02:05:03;2.43;;;1.80;;
8594;SDS011;4335;48.860;9.198;2022-12-22T02:07:56;2.30;;;1.53;;
8594;SDS011;4335;48.860;9.198;2022-12-22T02:10:54;1.67;;;1.57;;
8594;SDS011;4335;48.860;9.198;2022-12-22T02:13:52;2.80;;;1.87;;
8594;SDS011;4335;48.860;9.198;2022-12-22T02:16:48;2.67;;;1.60;;
8594;SDS011;4335;48.860;9.198;2022-12-22T02:22:55;2.83;;;1.80;;
8594;SDS011;4335;48.860;9.198;2022-12-22T02:25:54;2.23;;;1.80;;
8594;SDS011;4335;48.860;9.198;2022-12-22T02:28:44;3.70;;;1.70;;
8594;SDS011;4335;48.860;9.198;2022-12-22T02:31:33;2.03;;;1.83;;
8594;SDS011;4335;48.860;9.198;2022-12-22T02:34:19;3.20;;;1.90;;
8594;SDS011;4335;48.860;9.198;2022-12-22T02:37:06;1.93;;;1.73;;
8594;SDS011;4335;48.860;9.198;2022-12-22T02:40:02;2.33;;;1.80;;
8594;SDS011;4335;48.860;9.198;2022-12-22T02:42:55;2.07;;;1.73;;
8594;SDS011;4335;48.860;9.198;2022-12-22T02:45:51;3.10;;;1.30;;
8594;SDS011;4335;48.860;9.198;2022-12-22T02:48:44;1.40;;;1.20;;
8594;SDS011;4335;48.860;9.198;2022-12-22T02:51:34;2.00;;;1.40;;
8594;SDS011;4335;48.860;9.198;2022-12-22T02:54:33;2.37;;;1.90;;
8594;SDS011;4335;48.860;9.198;2022-12-22T02:57:20;1.80;;;1.37;;
8594;SDS011;4335;48.860;9.198;2022-12-22T03:00:05;1.47;;;1.30;;
8594;SDS011;4335;48.860;9.198;2022-12-22T03:02:55;2.40;;;1.40;;
8594;SDS011;4335;48.860;9.198;2022-12-22T03:05:43;1.63;;;1.30;;
8594;SDS011;4335;48.860;9.198;2022-12-22T03:08:31;2.10;;;1.40;;
8594;SDS011;4335;48.860;9.198;2022-12-22T03:11:15;1.63;;;1.10;;
8594;SDS011;4335;48.860;9.198;2022-12-22T03:14:00;1.30;;;1.10;;
8594;SDS011;4335;48.860;9.198;2022-12-22T03:16:44;2.33;;;1.43;;
8594;SDS011;4335;48.860;9.198;2022-12-22T03:19:33;2.43;;;1.20;;
8594;SDS011;4335;48.860;9.198;2022-12-22T03:22:18;2.57;;;1.40;;
8594;SDS011;4335;48.860;9.198;2022-12-22T03:25:09;2.50;;;1.50;;
8594;SDS011;4335;48.860;9.198;2022-12-22T03:27:54;2.93;;;1.10;;
8594;SDS011;4335;48.860;9.198;2022-12-22T03:30:31;1.30;;;1.20;;
8594;SDS011;4335;48.860;9.198;2022-12-22T03:32:58;2.73;;;1.43;;
8594;SDS011;4335;48.860;9.198;2022-12-22T03:35:33;1.30;;;1.20;;
8594;SDS011;4335;48.860;9.198;2022-12-22T03:38:00;2.30;;;1.20;;
8594;SDS011;4335;48.860;9.198;2022-12-22T03:40:31;1.30;;;1.20;;
8594;SDS011;4335;48.860;9.198;2022-12-22T03:42:58;1.30;;;1.17;;
8594;SDS011;4335;48.860;9.198;2022-12-22T03:45:42;2.30;;;1.30;;
8594;SDS011;4335;48.860;9.198;2022-12-22T03:48:30;2.50;;;1.23;;
8594;SDS011;4335;48.860;9.198;2022-12-22T03:50:59;1.60;;;1.20;;
8594;SDS011;4335;48.860;9.198;2022-12-22T03:53:27;1.30;;;1.20;;
8594;SDS011;4335;48.860;9.198;2022-12-22T03:55:54;2.33;;;1.10;;
8594;SDS011;4335;48.860;9.198;2022-12-22T03:58:21;3.00;;;1.27;;
8594;SDS011;4335;48.860;9.198;2022-12-22T04:00:52;2.23;;;1.17;;
8594;SDS011;4335;48.860;9.198;2022-12-22T04:03:31;1.63;;;1.20;;
8594;SDS011;4335;48.860;9.198;2022-12-22T04:06:00;1.67;;;0.83;;
8594;SDS011;4335;48.860;9.198;2022-12-22T04:08:27;3.03;;;1.63;;
8594;SDS011;4335;48.860;9.198;2022-12-22T04:10:55;0.97;;;0.80;;
8594;SDS011;4335;48.860;9.198;2022-12-22T04:13:44;1.40;;;1.20;;
8594;SDS011;4335;48.860;9.198;2022-12-22T04:16:12;1.17;;;1.00;;
8594;SDS011;4335;48.860;9.198;2022-12-22T04:18:42;1.57;;;1.20;;
8594;SDS011;4335;48.860;9.198;2022-12-22T04:21:11;1.93;;;1.10;;
8594;SDS011;4335;48.860;9.198;2022-12-22T04:23:38;2.10;;;1.13;;
8594;SDS011;4335;48.860;9.198;2022-12-22T04:26:05;1.20;;;1.10;;
8594;SDS011;4335;48.860;9.198;2022-12-22T04:28:36;1.10;;;1.00;;
8594;SDS011;4335;48.860;9.198;2022-12-22T04:31:03;1.53;;;1.20;;
8594;SDS011;4335;48.860;9.198;2022-12-22T04:33:34;1.17;;;1.00;;
8594;SDS011;4335;48.860;9.198;2022-12-22T04:36:01;2.10;;;1.50;;
8594;SDS011;4335;48.860;9.198;2022-12-22T04:38:30;1.90;;;1.07;;
8594;SDS011;4335;48.860;9.198;2022-12-22T04:41:03;1.73;;;1.17;;
8594;SDS011;4335;48.860;9.198;2022-12-22T04:43:32;1.63;;;1.20;;
8594;SDS011;4335;48.860;9.198;2022-12-22T04:46:00;1.40;;;1.00;;
8594;SDS011;4335;48.860;9.198;2022-12-22T04:48:27;2.00;;;1.53;;
8594;SDS011;4335;48.860;9.198;2022-12-22T04:50:58;2.67;;;2.13;;
8594;SDS011;4335;48.860;9.198;2022-12-22T04:53:27;4.80;;;2.77;;
8594;SDS011;4335;48.860;9.198;2022-12-22T04:55:58;2.93;;;1.63;;
8594;SDS011;4335;48.860;9.198;2022-12-22T04:58:27;1.57;;;1.20;;
8594;SDS011;4335;48.860;9.198;2022-12-22T05:01:08;3.93;;;2.30;;
8594;SDS011;4335;48.860;9.198;2022-12-22T05:03:37;1.23;;;1.13;;
8594;SDS011;4335;48.860;9.198;2022-12-22T05:06:10;1.63;;;1.27;;
8594;SDS011;4335;48.860;9.198;2022-12-22T05:08:42;1.50;;;1.10;;
8594;SDS011;4335;48.860;9.198;2022-12-22T05:11:10;1.20;;;1.10;;
8594;SDS011;4335;48.860;9.198;2022-12-22T05:13:37;2.90;;;1.70;;
8594;SDS011;4335;48.860;9.198;2022-12-22T05:16:05;2.60;;;1.60;;
8594;SDS011;4335;48.860;9.198;2022-12-22T05:18:34;1.83;;;1.50;;
8594;SDS011;4335;48.860;9.198;2022-12-22T05:21:02;1.60;;;1.20;;
8594;SDS011;4335;48.860;9.198;2022-12-22T05:23:31;2.37;;;1.23;;
8594;SDS011;4335;48.860;9.198;2022-12-22T05:26:00;1.37;;;1.23;;
8594;SDS011;4335;48.860;9.198;2022-12-22T05:28:28;1.53;;;1.20;;
8594;SDS011;4335;48.860;9.198;2022-12-22T05:31:02;2.67;;;1.57;;
8594;SDS011;4335;48.860;9.198;2022-12-22T05:33:33;1.97;;;1.27;;
8594;SDS011;4335;48.860;9.198;2022-12-22T05:36:04;3.10;;;1.10;;
8594;SDS011;4335;48.860;9.198;2022-12-22T05:38:34;1.50;;;1.30;;
8594;SDS011;4335;48.860;9.198;2022-12-22T05:41:03;1.23;;;1.13;;
8594;SDS011;4335;48.860;9.198;2022-12-22T05:43:31;2.67;;;1.20;;
8594;SDS011;4335;48.860;9.198;2022-12-22T05:46:00;3.37;;;1.20;;
8594;SDS011;4335;48.860;9.198;2022-12-22T05:48:31;2.30;;;1.37;;
8594;SDS011;4335;48.860;9.198;2022-12-22T05:50:58;2.73;;;1.30;;
8594;SDS011;4335;48.860;9.198;2022-12-22T05:53:26;4.83;;;1.60;;
8594;SDS011;4335;48.860;9.198;2022-12-22T05:55:53;1.70;;;1.20;;
8594;SDS011;4335;48.860;9.198;2022-12-22T05:58:25;4.20;;;1.50;;
8594;SDS011;4335;48.860;9.198;2022-12-22T06:00:54;2.03;;;1.30;;
8594;SDS011;4335;48.860;9.198;2022-12-22T06:03:23;3.77;;;1.30;;
8594;SDS011;4335;48.860;9.198;2022-12-22T06:05:51;3.10;;;1.20;;
8594;SDS011;4335;48.860;9.198;2022-12-22T06:08:19;3.17;;;1.20;;
8594;SDS011;4335;48.860;9.198;2022-12-22T06:10:46;2.57;;;1.33;;
8594;SDS011;4335;48.860;9.198;2022-12-22T06:13:13;2.30;;;1.50;;
8594;SDS011;4335;48.860;9.198;2022-12-22T06:15:42;2.27;;;1.10;;
8594;SDS011;4335;48.860;9.198;2022-12-22T06:18:10;1.50;;;1.20;;
8594;SDS011;4335;48.860;9.198;2022-12-22T06:20:37;3.53;;;1.77;;
8594;SDS011;4335;48.860;9.198;2022-12-22T06:23:05;2.30;;;1.60;;
8594;SDS011;4335;48.860;9.198;2022-12-22T06:25:32;3.87;;;2.10;;
8594;SDS011;4335;48.860;9.198;2022-12-22T06:28:05;5.23;;;2.37;;
8594;SDS011;4335;48.860;9.198;2022-12-22T06:30:36;3.37;;;1.50;;
8594;SDS011;4335;48.860;9.198;2022-12-22T06:33:10;4.20;;;1.67;;
8594;SDS011;4335;48.860;9.198;2022-12-22T06:35:37;3.87;;;1.50;;
8594;SDS011;4335;48.860;9.198;2022-12-22T06:38:05;5.57;;;2.10;;
8594;SDS011;4335;48.860;9.198;2022-12-22T06:40:32;3.57;;;2.20;;
8594;SDS011;4335;48.860;9.198;2022-12-22T06:43:00;3.83;;;1.63;;
8594;SDS011;4335;48.860;9.198;2022-12-22T06:45:38;3.53;;;1.60;;
8594;SDS011;4335;48.860;9.198;2022-12-22T06:48:08;6.20;;;2.27;;
8594;SDS011;4335;48.860;9.198;2022-12-22T06:50:42;3.30;;;2.67;;
8594;SDS011;4335;48.860;9.198;2022-12-22T06:53:10;3.80;;;1.63;;
8594;SDS011;4335;48.860;9.198;2022-12-22T06:55:37;5.07;;;2.47;;
8594;SDS011;4335;48.860;9.198;2022-12-22T06:58:05;3.53;;;1.53;;
8594;SDS011;4335;48.860;9.198;2022-12-22T07:00:33;3.23;;;1.67;;
8594;SDS011;4335;48.860;9.198;2022-12-22T07:03:00;2.53;;;1.50;;
8594;SDS011;4335;48.860;9.198;2022-12-22T07:05:32;3.77;;;1.67;;
8594;SDS011;4335;48.860;9.198;2022-12-22T07:08:03;4.50;;;1.73;;
8594;SDS011;4335;48.860;9.198;2022-12-22T07:10:30;5.03;;;2.20;;
8594;SDS011;4335;48.860;9.198;2022-12-22T07:13:15;4.33;;;1.83;;
8594;SDS011;4335;48.860;9.198;2022-12-22T07:15:45;5.83;;;1.90;;
8594;SDS011;4335;48.860;9.198;2022-12-22T07:18:13;2.67;;;1.50;;
8594;SDS011;4335;48.860;9.198;2022-12-22T07:20:42;7.23;;;2.07;;
8594;SDS011;4335;48.860;9.198;2022-12-22T07:23:09;6.03;;;1.90;;
8594;SDS011;4335;48.860;9.198;2022-12-22T07:25:37;6.03;;;1.80;;
8594;SDS011;4335;48.860;9.198;2022-12-22T07:28:05;5.63;;;1.73;;
8594;SDS011;4335;48.860;9.198;2022-12-22T07:30:38;7.87;;;1.70;;
8594;SDS011;4335;48.860;9.198;2022-12-22T07:33:06;5.23;;;2.17;;
8594;SDS011;4335;48.860;9.198;2022-12-22T07:35:33;4.03;;;2.00;;
8594;SDS011;4335;48.860;9.198;2022-12-22T07:38:08;3.87;;;1.83;;
8594;SDS011;4335;48.860;9.198;2022-12-22T07:40:36;7.57;;;2.33;;
8594;SDS011;4335;48.860;9.198;2022-12-22T07:43:06;6.70;;;1.90;;
8594;SDS011;4335;48.860;9.198;2022-12-22T07:45:32;3.70;;;1.93;;
8594;SDS011;4335;48.860;9.198;2022-12-22T07:48:03;5.43;;;2.57;;
8594;SDS011;4335;48.860;9.198;2022-12-22T07:50:54;5.23;;;2.00;;
8594;SDS011;4335;48.860;9.198;2022-12-22T07:53:28;3.50;;;1.50;;
8594;SDS011;4335;48.860;9.198;2022-12-22T07:55:56;7.33;;;3.23;;
8594;SDS011;4335;48.860;9.198;2022-12-22T07:58:30;4.63;;;1.60;;
8594;SDS011;4335;48.860;9.198;2022-12-22T08:01:00;4.80;;;1.87;;
8594;SDS011;4335;48.860;9.198;2022-12-22T08:03:28;7.60;;;2.13;;
8594;SDS011;4335;48.860;9.198;2022-12-22T08:05:58;5.40;;;1.83;;
8594;SDS011;4335;48.860;9.198;2022-12-22T08:08:31;5.13;;;2.37;;
8594;SDS011;4335;48.860;9.198;2022-12-22T08:11:02;4.20;;;1.90;;
8594;SDS011;4335;48.860;9.198;2022-12-22T08:13:30;7.33;;;2.10;;
8594;SDS011;4335;48.860;9.198;2022-12-22T08:16:01;3.57;;;1.97;;
8594;SDS011;4335;48.860;9.198;2022-12-22T08:18:30;2.87;;;1.90;;
8594;SDS011;4335;48.860;9.198;2022-12-22T08:20:58;3.80;;;2.00;;
8594;SDS011;4335;48.860;9.198;2022-12-22T08:23:25;2.80;;;1.70;;
8594;SDS011;4335;48.860;9.198;2022-12-22T08:25:56;4.07;;;1.50;;
8594;SDS011;4335;48.860;9.198;2022-12-22T08:28:26;4.07;;;2.20;;
8594;SDS011;4335;48.860;9.198;2022-12-22T08:30:54;5.40;;;1.80;;
8594;SDS011;4335;48.860;9.198;2022-12-22T08:33:21;5.40;;;2.63;;
8594;SDS011;4335;48.860;9.198;2022-12-22T08:35:49;5.50;;;1.80;;
8594;SDS011;4335;48.860;9.198;2022-12-22T08:38:19;3.30;;;1.70;;
8594;SDS011;4335;48.860;9.198;2022-12-22T08:40:47;3.60;;;1.57;;
8594;SDS011;4335;48.860;9.198;2022-12-22T08:43:19;4.33;;;1.80;;
8594;SDS011;4335;48.860;9.198;2022-12-22T08:45:51;5.70;;;2.00;;
8594;SDS011;4335;48.860;9.198;2022-12-22T08:48:18;4.47;;;2.40;;
8594;SDS011;4335;48.860;9.198;2022-12-22T08:50:54;3.90;;;2.50;;
8594;SDS011;4335;48.860;9.198;2022-12-22T08:53:22;3.77;;;2.13;;
8594;SDS011;4335;48.860;9.198;2022-12-22T08:55:56;4.20;;;2.00;;
8594;SDS011;4335;48.860;9.198;2022-12-22T08:58:24;4.30;;;2.00;;
8594;SDS011;4335;48.860;9.198;2022-12-22T09:00:52;4.87;;;2.13;;
8594;SDS011;4335;48.860;9.198;2022-12-22T09:03:22;3.70;;;1.70;;
8594;SDS011;4335;48.860;9.198;2022-12-22T09:05:49;4.57;;;1.80;;
8594;SDS011;4335;48.860;9.198;2022-12-22T09:08:20;3.70;;;1.80;;
8594;SDS011;4335;48.860;9.198;2022-12-22T09:10:47;5.90;;;2.30;;
8594;SDS011;4335;48.860;9.198;2022-12-22T09:13:18;4.20;;;1.90;;
8594;SDS011;4335;48.860;9.198;2022-12-22T09:15:47;6.27;;;2.43;;
8594;SDS011;4335;48.860;9.198;2022-12-22T09:18:15;6.63;;;1.90;;
8594;SDS011;4335;48.860;9.198;2022-12-22T09:20:45;4.60;;;2.10;;
8594;SDS011;4335;48.860;9.198;2022-12-22T09:23:13;4.37;;;1.40;;
8594;SDS011;4335;48.860;9.198;2022-12-22T09:25:44;6.03;;;2.33;;
8594;SDS011;4335;48.860;9.198;2022-12-22T09:28:11;7.53;;;2.00;;
8594;SDS011;4335;48.860;9.198;2022-12-22T09:30:41;3.50;;;1.80;;
8594;SDS011;4335;48.860;9.198;2022-12-22T09:33:10;5.80;;;1.80;;
8594;SDS011;4335;48.860;9.198;2022-12-22T09:35:40;6.43;;;1.90;;
8594;SDS011;4335;48.860;9.198;2022-12-22T09:38:07;5.43;;;2.33;;
8594;SDS011;4335;48.860;9.198;2022-12-22T09:40:41;4.97;;;2.40;;
8594;SDS011;4335;48.860;9.198;2022-12-22T09:43:08;4.87;;;1.80;;
8594;SDS011;4335;48.860;9.198;2022-12-22T09:45:41;6.87;;;2.10;;
8594;SDS011;4335;48.860;9.198;2022-12-22T09:48:11;6.00;;;2.07;;
8594;SDS011;4335;48.860;9.198;2022-12-22T09:50:42;3.87;;;1.77;;
8594;SDS011;4335;48.860;9.198;2022-12-22T09:53:11;4.13;;;1.90;;
8594;SDS011;4335;48.860;9.198;2022-12-22T09:55:45;5.30;;;2.10;;
8594;SDS011;4335;48.860;9.198;2022-12-22T09:58:15;5.30;;;2.20;;
8594;SDS011;4335;48.860;9.198;2022-12-22T10:00:47;5.43;;;1.83;;
8594;SDS011;4335;48.860;9.198;2022-12-22T10:03:24;6.60;;;1.93;;
8594;SDS011;4335;48.860;9.198;2022-12-22T10:06:02;7.87;;;2.30;;
8594;SDS011;4335;48.860;9.198;2022-12-22T10:08:36;4.17;;;2.13;;
8594;SDS011;4335;48.860;9.198;2022-12-22T10:11:06;5.33;;;2.10;;
8594;SDS011;4335;48.860;9.198;2022-12-22T10:13:41;3.03;;;1.67;;
8594;SDS011;4335;48.860;9.198;2022-12-22T10:16:15;4.77;;;1.80;;
8594;SDS011;4335;48.860;9.198;2022-12-22T10:18:54;3.90;;;1.93;;
8594;SDS011;4335;48.860;9.198;2022-12-22T10:21:26;4.97;;;1.87;;
8594;SDS011;4335;48.860;9.198;2022-12-22T10:23:54;4.17;;;1.90;;
8594;SDS011;4335;48.860;9.198;2022-12-22T10:26:22;4.60;;;1.90;;
8594;SDS011;4335;48.860;9.198;2022-12-22T10:28:52;3.90;;;1.70;;
8594;SDS011;4335;48.860;9.198;2022-12-22T10:31:24;7.43;;;1.87;;
8594;SDS011;4335;48.860;9.198;2022-12-22T10:34:09;3.17;;;1.90;;
8594;SDS011;4335;48.860;9.198;2022-12-22T10:36:38;2.73;;;1.57;;
8594;SDS011;4335;48.860;9.198;2022-12-22T10:39:08;3.60;;;1.80;;
8594;SDS011;4335;48.860;9.198;2022-12-22T10:41:37;6.63;;;2.00;;
8594;SDS011;4335;48.860;9.198;2022-12-22T10:44:08;5.50;;;2.87;;
8594;SDS011;4335;48.860;9.198;2022-12-22T10:46:46;2.67;;;1.40;;
8594;SDS011;4335;48.860;9.198;2022-12-22T10:49:20;3.00;;;1.97;;
8594;SDS011;4335;48.860;9.198;2022-12-22T10:51:50;6.63;;;2.80;;
8594;SDS011;4335;48.860;9.198;2022-12-22T10:54:27;6.27;;;2.20;;
8594;SDS011;4335;48.860;9.198;2022-12-22T10:57:02;4.53;;;1.50;;
8594;SDS011;4335;48.860;9.198;2022-12-22T10:59:32;2.33;;;1.60;;
8594;SDS011;4335;48.860;9.198;2022-12-22T11:05:08;2.47;;;1.50;;
8594;SDS011;4335;48.860;9.198;2022-12-22T11:07:37;3.43;;;1.83;;
8594;SDS011;4335;48.860;9.198;2022-12-22T11:10:15;3.57;;;1.30;;
8594;SDS011;4335;48.860;9.198;2022-12-22T11:12:55;3.23;;;1.60;;
8594;SDS011;4335;48.860;9.198;2022-12-22T11:15:37;3.17;;;1.73;;
8594;SDS011;4335;48.860;9.198;2022-12-22T11:18:13;3.17;;;2.10;;
8594;SDS011;4335;48.860;9.198;2022-12-22T11:21:06;3.87;;;1.73;;
8594;SDS011;4335;48.860;9.198;2022-12-22T11:23:40;2.10;;;1.50;;
8594;SDS011;4335;48.860;9.198;2022-12-22T11:26:18;2.73;;;1.40;;
8594;SDS011;4335;48.860;9.198;2022-12-22T11:28:56;3.80;;;1.30;;
8594;SDS011;4335;48.860;9.198;2022-12-22T11:31:36;4.93;;;1.70;;
8594;SDS011;4335;48.860;9.198;2022-12-22T11:34:18;7.47;;;4.53;;
8594;SDS011;4335;48.860;9.198;2022-12-22T11:37:00;3.57;;;1.87;;
8594;SDS011;4335;48.860;9.198;2022-12-22T11:39:40;3.27;;;1.50;;
8594;SDS011;4335;48.860;9.198;2022-12-22T11:42:16;2.27;;;1.47;;
8594;SDS011;4335;48.860;9.198;2022-12-22T11:45:02;3.53;;;1.70;;
8594;SDS011;4335;48.860;9.198;2022-12-22T11:48:00;2.07;;;1.20;;
8594;SDS011;4335;48.860;9.198;2022-12-22T11:50:38;2.73;;;1.20;;
8594;SDS011;4335;48.860;9.198;2022-12-22T11:53:30;1.50;;;1.10;;
8594;SDS011;4335;48.860;9.198;2022-12-22T11:56:17;2.63;;;1.30;;
8594;SDS011;4335;48.860;9.198;2022-12-22T11:58:53;2.47;;;1.40;;
8594;SDS011;4335;48.860;9.198;2022-12-22T12:01:36;2.53;;;1.10;;
8594;SDS011;4335;48.860;9.198;2022-12-22T12:04:26;2.23;;;1.07;;
8594;SDS011;4335;48.860;9.198;2022-12-22T12:07:08;3.33;;;1.83;;
8594;SDS011;4335;48.860;9.198;2022-12-22T12:09:52;2.97;;;1.53;;
8594;SDS011;4335;48.860;9.198;2022-12-22T12:12:34;2.67;;;1.50;;
8594;SDS011;4335;48.860;9.198;2022-12-22T12:15:16;3.60;;;1.67;;
8594;SDS011;4335;48.860;9.198;2022-12-22T12:17:57;3.00;;;1.20;;
8594;SDS011;4335;48.860;9.198;2022-12-22T12:20:45;5.40;;;1.50;;
8594;SDS011;4335;48.860;9.198;2022-12-22T12:23:31;3.40;;;1.50;;
8594;SDS011;4335;48.860;9.198;2022-12-22T12:26:13;3.37;;;1.20;;
8594;SDS011;4335;48.860;9.198;2022-12-22T12:28:45;3.03;;;1.53;;
8594;SDS011;4335;48.860;9.198;2022-12-22T12:31:20;1.93;;;1.27;;
8594;SDS011;4335;48.860;9.198;2022-12-22T12:33:52;3.00;;;1.10;;
8594;SDS011;4335;48.860;9.198;2022-12-22T12:36:26;2.60;;;1.50;;
8594;SDS011;4335;48.860;9.198;2022-12-22T12:39:08;1.20;;;0.97;;
8594;SDS011;4335;48.860;9.198;2022-12-22T12:41:52;2.73;;;1.73;;
8594;SDS011;4335;48.860;9.198;2022-12-22T12:44:25;2.57;;;1.40;;
8594;SDS011;4335;48.860;9.198;2022-12-22T12:46:57;1.87;;;1.60;;
8594;SDS011;4335;48.860;9.198;2022-12-22T12:49:53;2.60;;;1.63;;
8594;SDS011;4335;48.860;9.198;2022-12-22T12:55:53;3.00;;;1.17;;
8594;SDS011;4335;48.860;9.198;2022-12-22T13:10:37;6.20;;;1.30;;
8594;SDS011;4335;48.860;9.198;2022-12-22T13:13:08;1.57;;;1.20;;
8594;SDS011;4335;48.860;9.198;2022-12-22T13:15:42;2.40;;;1.07;;
8594;SDS011;4335;48.860;9.198;2022-12-22T13:21:11;1.90;;;1.20;;
8594;SDS011;4335;48.860;9.198;2022-12-22T13:23:41;2.60;;;1.10;;
8594;SDS011;4335;48.860;9.198;2022-12-22T13:26:12;4.20;;;1.93;;
8594;SDS011;4335;48.860;9.198;2022-12-22T13:28:41;2.47;;;1.20;;
8594;SDS011;4335;48.860;9.198;2022-12-22T13:31:15;3.07;;;1.43;;
8594;SDS011;4335;48.860;9.198;2022-12-22T13:33:45;2.53;;;1.53;;
8594;SDS011;4335;48.860;9.198;2022-12-22T13:36:20;5.60;;;1.50;;
8594;SDS011;4335;48.860;9.198;2022-12-22T13:38:59;2.40;;;1.00;;
8594;SDS011;4335;48.860;9.198;2022-12-22T13:41:27;3.67;;;1.33;;
8594;SDS011;4335;48.860;9.198;2022-12-22T13:44:02;4.00;;;1.80;;
8594;SDS011;4335;48.860;9.198;2022-12-22T13:46:34;2.23;;;1.67;;
8594;SDS011;4335;48.860;9.198;2022-12-22T13:49:06;2.80;;;1.20;;
8594;SDS011;4335;48.860;9.198;2022-12-22T13:51:41;2.37;;;1.40;;
8594;SDS011;4335;48.860;9.198;2022-12-22T13:54:11;3.03;;;1.40;;
8594;SDS011;4335;48.860;9.198;2022-12-22T13:56:42;4.57;;;2.00;;
8594;SDS011;4335;48.860;9.198;2022-12-22T13:59:16;2.40;;;1.50;;
8594;SDS011;4335;48.860;9.198;2022-12-22T14:01:56;2.43;;;1.33;;
8594;SDS011;4335;48.860;9.198;2022-12-22T14:07:08;3.47;;;1.57;;
8594;SDS011;4335;48.860;9.198;2022-12-22T14:09:36;3.43;;;1.80;;
8594;SDS011;4335;48.860;9.198;2022-12-22T14:12:11;4.20;;;1.57;;
8594;SDS011;4335;48.860;9.198;2022-12-22T14:14:40;1.80;;;1.20;;
8594;SDS011;4335;48.860;9.198;2022-12-22T14:17:17;3.00;;;1.70;;
8594;SDS011;4335;48.860;9.198;2022-12-22T14:19:53;3.53;;;1.33;;
8594;SDS011;4335;48.860;9.198;2022-12-22T14:22:22;3.90;;;1.83;;
8594;SDS011;4335;48.860;9.198;2022-12-22T14:24:53;2.60;;;1.50;;
8594;SDS011;4335;48.860;9.198;2022-12-22T14:27:29;4.03;;;1.43;;
8594;SDS011;4335;48.860;9.198;2022-12-22T14:30:00;4.27;;;1.90;;
8594;SDS011;4335;48.860;9.198;2022-12-22T14:32:35;5.80;;;2.03;;
8594;SDS011;4335;48.860;9.198;2022-12-22T14:35:13;5.10;;;1.87;;
8594;SDS011;4335;48.860;9.198;2022-12-22T14:38:07;5.27;;;2.13;;
8594;SDS011;4335;48.860;9.198;2022-12-22T14:40:49;6.47;;;1.97;;
8594;SDS011;4335;48.860;9.198;2022-12-22T14:43:22;5.10;;;1.73;;
8594;SDS011;4335;48.860;9.198;2022-12-22T14:46:02;5.30;;;2.17;;
8594;SDS011;4335;48.860;9.198;2022-12-22T14:48:34;5.43;;;2.20;;
8594;SDS011;4335;48.860;9.198;2022-12-22T14:51:04;4.80;;;2.00;;
8594;SDS011;4335;48.860;9.198;2022-12-22T14:53:35;5.40;;;2.20;;
8594;SDS011;4335;48.860;9.198;2022-12-22T14:56:09;5.03;;;2.47;;
8594;SDS011;4335;48.860;9.198;2022-12-22T14:58:42;6.23;;;2.10;;
8594;SDS011;4335;48.860;9.198;2022-12-22T15:01:12;5.30;;;2.13;;
8594;SDS011;4335;48.860;9.198;2022-12-22T15:03:43;6.37;;;2.07;;
8594;SDS011;4335;48.860;9.198;2022-12-22T15:06:21;5.27;;;2.50;;
8594;SDS011;4335;48.860;9.198;2022-12-22T15:09:07;4.97;;;1.73;;
8594;SDS011;4335;48.860;9.198;2022-12-22T15:11:54;4.77;;;1.97;;
8594;SDS011;4335;48.860;9.198;2022-12-22T15:14:31;5.90;;;2.50;;
8594;SDS011;4335;48.860;9.198;2022-12-22T15:17:01;5.37;;;1.97;;
8594;SDS011;4335;48.860;9.198;2022-12-22T15:19:37;6.00;;;2.27;;
8594;SDS011;4335;48.860;9.198;2022-12-22T15:22:05;10.77;;;2.40;;
8594;SDS011;4335;48.860;9.198;2022-12-22T15:24:33;6.80;;;2.43;;
8594;SDS011;4335;48.860;9.198;2022-12-22T15:27:00;5.83;;;2.10;;
8594;SDS011;4335;48.860;9.198;2022-12-22T15:29:28;7.57;;;2.07;;
8594;SDS011;4335;48.860;9.198;2022-12-22T15:31:55;7.60;;;2.40;;
8594;SDS011;4335;48.860;9.198;2022-12-22T15:34:23;9.77;;;4.47;;
8594;SDS011;4335;48.860;9.198;2022-12-22T15:36:57;8.10;;;2.43;;
8594;SDS011;4335;48.860;9.198;2022-12-22T15:39:24;5.97;;;1.87;;
8594;SDS011;4335;48.860;9.198;2022-12-22T15:41:54;10.53;;;2.30;;
8594;SDS011;4335;48.860;9.198;2022-12-22T15:44:22;8.30;;;2.17;;
8594;SDS011;4335;48.860;9.198;2022-12-22T15:46:53;6.80;;;3.07;;
8594;SDS011;4335;48.860;9.198;2022-12-22T15:49:22;11.30;;;3.10;;
8594;SDS011;4335;48.860;9.198;2022-12-22T15:51:52;10.80;;;2.53;;
8594;SDS011;4335;48.860;9.198;2022-12-22T15:54:31;7.77;;;2.47;;
8594;SDS011;4335;48.860;9.198;2022-12-22T15:56:58;4.77;;;2.03;;
8594;SDS011;4335;48.860;9.198;2022-12-22T15:59:27;7.20;;;2.67;;
8594;SDS011;4335;48.860;9.198;2022-12-22T16:01:58;9.40;;;2.37;;
8594;SDS011;4335;48.860;9.198;2022-12-22T16:04:25;6.20;;;2.03;;
8594;SDS011;4335;48.860;9.198;2022-12-22T16:06:52;5.83;;;2.50;;
8594;SDS011;4335;48.860;9.198;2022-12-22T16:09:24;4.07;;;1.87;;
8594;SDS011;4335;48.860;9.198;2022-12-22T16:11:56;5.07;;;2.50;;
8594;SDS011;4335;48.860;9.198;2022-12-22T16:14:26;6.70;;;3.43;;
8594;SDS011;4335;48.860;9.198;2022-12-22T16:16:54;8.27;;;2.60;;
8594;SDS011;4335;48.860;9.198;2022-12-22T16:19:21;8.23;;;2.50;;
8594;SDS011;4335;48.860;9.198;2022-12-22T16:21:56;6.13;;;2.27;;
8594;SDS011;4335;48.860;9.198;2022-12-22T16:24:26;6.83;;;3.73;;
8594;SDS011;4335;48.860;9.198;2022-12-22T16:26:58;5.47;;;3.60;;
8594;SDS011;4335;48.860;9.198;2022-12-22T16:29:27;5.17;;;2.30;;
8594;SDS011;4335;48.860;9.198;2022-12-22T16:32:12;9.00;;;4.40;;
8594;SDS011;4335;48.860;9.198;2022-12-22T16:34:50;7.47;;;2.53;;